Home > Products > Valid Products > TAF

000
FTUS44 KOUN 311735
TAFPNC
TAF
KPNC 311735Z 3118/0118 17010G13KT P6SM FEW060 FEW250
     FM010100 15008KT P6SM SKC
     FM011200 17010KT P6SM FEW250=



000
FTUS44 KOUN 311735
TAFHBR
TAF
KHBR 311735Z 3118/0118 20015G25KT P6SM FEW250
     FM010100 16008KT P6SM SKC
     FM011200 19010G15KT P6SM SKC=



000
FTUS44 KOUN 311735
TAFLAW
TAF
KLAW 311735Z 3118/0118 19010G18KT P6SM FEW050 FEW250
     FM010100 14007KT P6SM SKC
     FM011200 17010KT P6SM SKC=



000
FTUS44 KOUN 311735
TAFSPS
TAF
KSPS 311735Z 3118/0118 20010G20KT P6SM FEW050 FEW250
     FM010100 15008KT P6SM SKC
     FM011200 19010G13KT P6SM SKC=



000
FTUS44 KOUN 311735
TAFWWR
TAF
KWWR 311735Z 3118/0118 21015G22KT P6SM FEW250
     FM010100 16012KT P6SM SKC
     FM011200 19015G20KT P6SM SKC=



000
FTUS44 KOUN 311735
TAFOKC
TAF
KOKC 311735Z 3118/0118 19015G20KT P6SM FEW040 FEW250
     FM010100 15007KT P6SM SKC
     FM011200 17010G15KT P6SM FEW250=



000
FTUS44 KOUN 311735
TAFHBR
TAF
KHBR 311735Z 3118/0118 20015G25KT P6SM FEW250
     FM010100 16008KT P6SM SKC
     FM011200 19010G15KT P6SM SKC=



000
FTUS44 KOUN 311735
TAFLAW
TAF
KLAW 311735Z 3118/0118 19010G18KT P6SM FEW050 FEW250
     FM010100 14007KT P6SM SKC
     FM011200 17010KT P6SM SKC=



000
FTUS44 KOUN 311735
TAFOUN
TAF
KOUN 311735Z 3118/0118 19010G20KT P6SM FEW040 FEW250
     FM010100 15007KT P6SM SKC
     FM011200 17010G15KT P6SM FEW250=



000
FTUS44 KOUN 311735
TAFPNC
TAF
KPNC 311735Z 3118/0118 17010G13KT P6SM FEW060 FEW250
     FM010100 15008KT P6SM SKC
     FM011200 17010KT P6SM FEW250=



000
FTUS44 KOUN 311735
TAFGAG
TAF
KGAG 311735Z 3118/0118 22015G22KT P6SM FEW250
     FM010100 16012KT P6SM SKC
     FM011200 19015G20KT P6SM SKC=



000
FTUS44 KOUN 311735
TAFWWR
TAF
KWWR 311735Z 3118/0118 21015G22KT P6SM FEW250
     FM010100 16012KT P6SM SKC
     FM011200 19015G20KT P6SM SKC=



000
FTUS44 KOUN 311735
TAFOUN
TAF
KOUN 311735Z 3118/0118 19010G20KT P6SM FEW040 FEW250
     FM010100 15007KT P6SM SKC
     FM011200 17010G15KT P6SM FEW250=



000
FTUS44 KOUN 311735
TAFSPS
TAF
KSPS 311735Z 3118/0118 20010G20KT P6SM FEW050 FEW250
     FM010100 15008KT P6SM SKC
     FM011200 19010G13KT P6SM SKC=



000
FTUS44 KOUN 311735
TAFGAG
TAF
KGAG 311735Z 3118/0118 22015G22KT P6SM FEW250
     FM010100 16012KT P6SM SKC
     FM011200 19015G20KT P6SM SKC=



000
FTUS44 KOUN 311735
TAFOKC
TAF
KOKC 311735Z 3118/0118 19015G20KT P6SM FEW040 FEW250
     FM010100 15007KT P6SM SKC
     FM011200 17010G15KT P6SM FEW250=



000
FTUS44 KOUN 311135
TAFOUN
TAF
KOUN 311135Z 3112/0112 15008KT P6SM SKC
     FM311500 18013G19KT P6SM SCT040
     FM010100 15009KT P6SM SKC=



000
FTUS44 KOUN 311135
TAFHBR
TAF
KHBR 311135Z 3112/0112 18012KT P6SM FEW100
     FM311500 20016G24KT P6SM SCT050
     FM010100 16013KT P6SM SKC=



000
FTUS44 KOUN 311135
TAFPNC
TAF
KPNC 311135Z 3112/0112 14007KT 6SM BR SKC
      TEMPO 3112/3113 3SM BR SCT003
     FM311500 18012G18KT P6SM SCT040
     FM010100 15010KT P6SM SKC=



000
FTUS44 KOUN 311135
TAFOKC
TAF
KOKC 311135Z 3112/0112 15010KT P6SM SKC
     FM311500 18014G20KT P6SM SCT040
     FM010100 15010KT P6SM SKC=



000
FTUS44 KOUN 311135
TAFGAG
TAF
KGAG 311135Z 3112/0112 18006KT P6SM SKC
     FM311500 19017G25KT P6SM SCT250
     FM010100 16014KT P6SM SKC=



000
FTUS44 KOUN 311135
TAFPNC
TAF
KPNC 311135Z 3112/0112 14007KT 6SM BR SKC
      TEMPO 3112/3113 3SM BR SCT003
     FM311500 18012G18KT P6SM SCT040
     FM010100 15010KT P6SM SKC=



000
FTUS44 KOUN 311135
TAFGAG
TAF
KGAG 311135Z 3112/0112 18006KT P6SM SKC
     FM311500 19017G25KT P6SM SCT250
     FM010100 16014KT P6SM SKC=



000
FTUS44 KOUN 311135
TAFSPS
TAF
KSPS 311135Z 3112/0112 14007KT P6SM FEW100
     FM311500 18012G18KT P6SM SCT050
     FM010100 14010KT P6SM SKC=



000
FTUS44 KOUN 311135
TAFLAW
TAF
KLAW 311135Z 3112/0112 14007KT P6SM FEW100
     FM311500 19013G19KT P6SM SCT050
     FM010100 14010KT P6SM SKC=



000
FTUS44 KOUN 311135
TAFPNC
TAF
KPNC 311135Z 3112/0112 14007KT 6SM BR SKC
      TEMPO 3112/3113 3SM BR SCT003
     FM311500 18012G18KT P6SM SCT040
     FM010100 15010KT P6SM SKC=



000
FTUS44 KOUN 311135
TAFLAW
TAF
KLAW 311135Z 3112/0112 14007KT P6SM FEW100
     FM311500 19013G19KT P6SM SCT050
     FM010100 14010KT P6SM SKC=



000
FTUS44 KOUN 311135
TAFLAW
TAF
KLAW 311135Z 3112/0112 14007KT P6SM FEW100
     FM311500 19013G19KT P6SM SCT050
     FM010100 14010KT P6SM SKC=



000
FTUS44 KOUN 311135
TAFGAG
TAF
KGAG 311135Z 3112/0112 18006KT P6SM SKC
     FM311500 19017G25KT P6SM SCT250
     FM010100 16014KT P6SM SKC=



000
FTUS44 KOUN 311135
TAFOKC
TAF
KOKC 311135Z 3112/0112 15010KT P6SM SKC
     FM311500 18014G20KT P6SM SCT040
     FM010100 15010KT P6SM SKC=



000
FTUS44 KOUN 311135
TAFOUN
TAF
KOUN 311135Z 3112/0112 15008KT P6SM SKC
     FM311500 18013G19KT P6SM SCT040
     FM010100 15009KT P6SM SKC=



000
FTUS44 KOUN 311135
TAFSPS
TAF
KSPS 311135Z 3112/0112 14007KT P6SM FEW100
     FM311500 18012G18KT P6SM SCT050
     FM010100 14010KT P6SM SKC=



000
FTUS44 KOUN 311135
TAFHBR
TAF
KHBR 311135Z 3112/0112 18012KT P6SM FEW100
     FM311500 20016G24KT P6SM SCT050
     FM010100 16013KT P6SM SKC=



000
FTUS44 KOUN 311135
TAFWWR
TAF
KWWR 311135Z 3112/0112 19006KT P6SM SKC
     FM311500 19016G24KT P6SM SCT250
     FM010100 16014KT P6SM SKC=



000
FTUS44 KOUN 311135
TAFHBR
TAF
KHBR 311135Z 3112/0112 18012KT P6SM FEW100
     FM311500 20016G24KT P6SM SCT050
     FM010100 16013KT P6SM SKC=



000
FTUS44 KOUN 311135
TAFWWR
TAF
KWWR 311135Z 3112/0112 19006KT P6SM SKC
     FM311500 19016G24KT P6SM SCT250
     FM010100 16014KT P6SM SKC=



000
FTUS44 KOUN 311135
TAFSPS
TAF
KSPS 311135Z 3112/0112 14007KT P6SM FEW100
     FM311500 18012G18KT P6SM SCT050
     FM010100 14010KT P6SM SKC=



000
FTUS44 KOUN 311135
TAFOKC
TAF
KOKC 311135Z 3112/0112 15010KT P6SM SKC
     FM311500 18014G20KT P6SM SCT040
     FM010100 15010KT P6SM SKC=



000
FTUS44 KOUN 311135
TAFWWR
TAF
KWWR 311135Z 3112/0112 19006KT P6SM SKC
     FM311500 19016G24KT P6SM SCT250
     FM010100 16014KT P6SM SKC=



000
FTUS44 KOUN 311135
TAFHBR
TAF
KHBR 311135Z 3112/0112 18012KT P6SM FEW100
     FM311500 20016G24KT P6SM SCT050
     FM010100 16013KT P6SM SKC=



000
FTUS44 KOUN 311135
TAFWWR
TAF
KWWR 311135Z 3112/0112 19006KT P6SM SKC
     FM311500 19016G24KT P6SM SCT250
     FM010100 16014KT P6SM SKC=



000
FTUS44 KOUN 311135
TAFGAG
TAF
KGAG 311135Z 3112/0112 18006KT P6SM SKC
     FM311500 19017G25KT P6SM SCT250
     FM010100 16014KT P6SM SKC=



000
FTUS44 KOUN 311135
TAFPNC
TAF
KPNC 311135Z 3112/0112 14007KT 6SM BR SKC
      TEMPO 3112/3113 3SM BR SCT003
     FM311500 18012G18KT P6SM SCT040
     FM010100 15010KT P6SM SKC=



000
FTUS44 KOUN 311135
TAFOUN
TAF
KOUN 311135Z 3112/0112 15008KT P6SM SKC
     FM311500 18013G19KT P6SM SCT040
     FM010100 15009KT P6SM SKC=



000
FTUS44 KOUN 311135
TAFOKC
TAF
KOKC 311135Z 3112/0112 15010KT P6SM SKC
     FM311500 18014G20KT P6SM SCT040
     FM010100 15010KT P6SM SKC=



000
FTUS44 KOUN 311135
TAFSPS
TAF
KSPS 311135Z 3112/0112 14007KT P6SM FEW100
     FM311500 18012G18KT P6SM SCT050
     FM010100 14010KT P6SM SKC=



000
FTUS44 KOUN 311135
TAFOUN
TAF
KOUN 311135Z 3112/0112 15008KT P6SM SKC
     FM311500 18013G19KT P6SM SCT040
     FM010100 15009KT P6SM SKC=



000
FTUS44 KOUN 311135
TAFLAW
TAF
KLAW 311135Z 3112/0112 14007KT P6SM FEW100
     FM311500 19013G19KT P6SM SCT050
     FM010100 14010KT P6SM SKC=



000
FTUS44 KOUN 310534
TAFHBR
TAF
KHBR 310534Z 3106/0106 16006KT P6SM SKC
     FM311500 21011KT P6SM SKC
     FM311800 19014G20KT P6SM SKC
     FM010100 15010KT P6SM SKC=



000
FTUS44 KOUN 310534
TAFWWR
TAF
KWWR 310534Z 3106/0106 15006KT P6SM SKC
     FM311500 21011KT P6SM SKC
     FM311800 19014G19KT P6SM SKC
     FM010100 16011KT P6SM SKC=



000
FTUS44 KOUN 310534
TAFPNC
TAF
KPNC 310534Z 3106/0106 13005KT 5SM BR SKC
      TEMPO 3109/3113 2SM BR SCT003
     FM311500 17009KT P6SM SKC
     FM311900 18012KT P6SM SCT050
     FM010100 14010KT P6SM SKC=



000
FTUS44 KOUN 310534
TAFSPS
TAF
KSPS 310534Z 3106/0106 17007KT P6SM SKC
     FM311500 20012KT P6SM SKC
     FM312000 17013KT P6SM FEW050
     FM010100 15008KT P6SM SKC=



000
FTUS44 KOUN 310534
TAFSPS
TAF
KSPS 310534Z 3106/0106 17007KT P6SM SKC
     FM311500 20012KT P6SM SKC
     FM312000 17013KT P6SM FEW050
     FM010100 15008KT P6SM SKC=



000
FTUS44 KOUN 310534
TAFLAW
TAF
KLAW 310534Z 3106/0106 16007KT P6SM SKC
     FM311500 20012KT P6SM SKC
     FM312000 17012KT P6SM FEW050
     FM010100 14007KT P6SM SKC=



000
FTUS44 KOUN 310534
TAFGAG
TAF
KGAG 310534Z 3106/0106 15007KT P6SM SKC
     FM311500 21010KT P6SM SKC
     FM311800 19014G19KT P6SM SKC
     FM010100 16011KT P6SM SKC=



000
FTUS44 KOUN 310534
TAFOKC
TAF
KOKC 310534Z 3106/0106 14006KT P6SM SKC
     FM311500 19013KT P6SM SKC
     FM311800 18014KT P6SM SCT040
     FM010100 15007KT P6SM SKC=



000
FTUS44 KOUN 310534
TAFPNC
TAF
KPNC 310534Z 3106/0106 13005KT 5SM BR SKC
      TEMPO 3109/3113 2SM BR SCT003
     FM311500 17009KT P6SM SKC
     FM311900 18012KT P6SM SCT050
     FM010100 14010KT P6SM SKC=



000
FTUS44 KOUN 310534
TAFOUN
TAF
KOUN 310534Z 3106/0106 14005KT P6SM SKC
     FM311500 19013KT P6SM SKC
     FM311800 18014KT P6SM SCT040
     FM010100 15007KT P6SM SKC=



000
FTUS44 KOUN 310534
TAFOUN
TAF
KOUN 310534Z 3106/0106 14005KT P6SM SKC
     FM311500 19013KT P6SM SKC
     FM311800 18014KT P6SM SCT040
     FM010100 15007KT P6SM SKC=



000
FTUS44 KOUN 310534
TAFGAG
TAF
KGAG 310534Z 3106/0106 15007KT P6SM SKC
     FM311500 21010KT P6SM SKC
     FM311800 19014G19KT P6SM SKC
     FM010100 16011KT P6SM SKC=



000
FTUS44 KOUN 310534
TAFWWR
TAF
KWWR 310534Z 3106/0106 15006KT P6SM SKC
     FM311500 21011KT P6SM SKC
     FM311800 19014G19KT P6SM SKC
     FM010100 16011KT P6SM SKC=



000
FTUS44 KOUN 310534
TAFHBR
TAF
KHBR 310534Z 3106/0106 16006KT P6SM SKC
     FM311500 21011KT P6SM SKC
     FM311800 19014G20KT P6SM SKC
     FM010100 15010KT P6SM SKC=



000
FTUS44 KOUN 310534
TAFLAW
TAF
KLAW 310534Z 3106/0106 16007KT P6SM SKC
     FM311500 20012KT P6SM SKC
     FM312000 17012KT P6SM FEW050
     FM010100 14007KT P6SM SKC=



000
FTUS44 KOUN 310534
TAFOKC
TAF
KOKC 310534Z 3106/0106 14006KT P6SM SKC
     FM311500 19013KT P6SM SKC
     FM311800 18014KT P6SM SCT040
     FM010100 15007KT P6SM SKC=



000
FTUS44 KOUN 302334
TAFOKC
TAF
KOKC 302334Z 3100/3124 VRB05KT P6SM SKC
     FM311500 19013KT P6SM SKC=



000
FTUS44 KOUN 302334
TAFLAW
TAF
KLAW 302334Z 3100/3124 08005KT P6SM SKC
     FM310800 17007KT P6SM SKC
     FM311600 19012KT P6SM SKC=



000
FTUS44 KOUN 302334
TAFLAW
TAF
KLAW 302334Z 3100/3124 08005KT P6SM SKC
     FM310800 17007KT P6SM SKC
     FM311600 19012KT P6SM SKC=



000
FTUS44 KOUN 302334
TAFSPS
TAF
KSPS 302334Z 3100/3124 08006KT P6SM SKC
     FM310800 17008KT P6SM SKC
     FM311600 20012KT P6SM SKC=



000
FTUS44 KOUN 302334
TAFGAG
TAF
KGAG 302334Z 3100/3124 13006KT P6SM SKC
     FM311500 19010KT P6SM SKC
     FM311800 19014G19KT P6SM SKC=



000
FTUS44 KOUN 302334
TAFOUN
TAF
KOUN 302334Z 3100/3124 VRB05KT P6SM SKC
     FM311500 19013KT P6SM SKC=



000
FTUS44 KOUN 302334
TAFPNC
TAF
KPNC 302334Z 3100/3124 10005KT P6SM SKC
     FM311400 16007KT P6SM SKC
     FM311800 18012KT P6SM SCT050=



000
FTUS44 KOUN 302334
TAFWWR
TAF
KWWR 302334Z 3100/3124 13006KT P6SM SKC
     FM311500 19011KT P6SM SKC
     FM311800 19014G19KT P6SM SKC=



000
FTUS44 KOUN 302334
TAFWWR
TAF
KWWR 302334Z 3100/3124 13006KT P6SM SKC
     FM311500 19011KT P6SM SKC
     FM311800 19014G19KT P6SM SKC=



000
FTUS44 KOUN 302334
TAFOUN
TAF
KOUN 302334Z 3100/3124 VRB05KT P6SM SKC
     FM311500 19013KT P6SM SKC=



000
FTUS44 KOUN 302334
TAFHBR
TAF
KHBR 302334Z 3100/3124 13006KT P6SM SKC
     FM311500 20011KT P6SM SKC
     FM311800 19014G20KT P6SM SKC=



000
FTUS44 KOUN 302334
TAFHBR
TAF
KHBR 302334Z 3100/3124 13006KT P6SM SKC
     FM311500 20011KT P6SM SKC
     FM311800 19014G20KT P6SM SKC=



000
FTUS44 KOUN 302334
TAFOKC
TAF
KOKC 302334Z 3100/3124 VRB05KT P6SM SKC
     FM311500 19013KT P6SM SKC=



000
FTUS44 KOUN 302334
TAFSPS
TAF
KSPS 302334Z 3100/3124 08006KT P6SM SKC
     FM310800 17008KT P6SM SKC
     FM311600 20012KT P6SM SKC=



000
FTUS44 KOUN 302334
TAFPNC
TAF
KPNC 302334Z 3100/3124 10005KT P6SM SKC
     FM311400 16007KT P6SM SKC
     FM311800 18012KT P6SM SCT050=



000
FTUS44 KOUN 302334
TAFGAG
TAF
KGAG 302334Z 3100/3124 13006KT P6SM SKC
     FM311500 19010KT P6SM SKC
     FM311800 19014G19KT P6SM SKC=



000
FTUS44 KOUN 301722
TAFOUN
TAF
KOUN 301722Z 3018/3118 02005KT P6SM SCT040
     FM310100 15005KT P6SM SKC
     FM311500 19011KT P6SM SKC=



000
FTUS44 KOUN 301722
TAFOKC
TAF
KOKC 301722Z 3018/3118 01006KT P6SM SCT040
     FM310100 15005KT P6SM SKC
     FM311500 19011KT P6SM SKC=



000
FTUS44 KOUN 301722
TAFOUN
TAF
KOUN 301722Z 3018/3118 02005KT P6SM SCT040
     FM310100 15005KT P6SM SKC
     FM311500 19011KT P6SM SKC=



000
FTUS44 KOUN 301722
TAFLAW
TAF
KLAW 301722Z 3018/3118 03005KT P6SM FEW070
     FM310300 13005KT P6SM SKC
     FM311600 18010KT P6SM SKC=



000
FTUS44 KOUN 301722
TAFGAG
TAF
KGAG 301722Z 3018/3118 07005KT P6SM SKC
     FM310000 13006KT P6SM SKC
     FM311500 19011KT P6SM SKC=



000
FTUS44 KOUN 301722
TAFHBR
TAF
KHBR 301722Z 3018/3118 35005KT P6SM SKC
     FM310000 14006KT P6SM SKC
     FM311500 20011KT P6SM SKC=



000
FTUS44 KOUN 301722
TAFSPS
TAF
KSPS 301722Z 3018/3118 36006KT P6SM FEW080
     FM310100 17008KT P6SM SKC=



000
FTUS44 KOUN 301722
TAFPNC
TAF
KPNC 301722Z 3018/3118 05004KT P6SM BKN040
     FM302200 06005KT P6SM SCT050
     FM310100 13005KT P6SM SKC
     FM311100 14005KT 4SM BR FEW002
     FM311400 15007KT P6SM SKC=



000
FTUS44 KOUN 301722
TAFWWR
TAF
KWWR 301722Z 3018/3118 07005KT P6SM SKC
     FM310000 13006KT P6SM SKC
     FM311500 19011KT P6SM SKC=



000
FTUS44 KOUN 301722
TAFPNC
TAF
KPNC 301722Z 3018/3118 05004KT P6SM BKN040
     FM302200 06005KT P6SM SCT050
     FM310100 13005KT P6SM SKC
     FM311100 14005KT 4SM BR FEW002
     FM311400 15007KT P6SM SKC=



000
FTUS44 KOUN 301722
TAFHBR
TAF
KHBR 301722Z 3018/3118 35005KT P6SM SKC
     FM310000 14006KT P6SM SKC
     FM311500 20011KT P6SM SKC=



000
FTUS44 KOUN 301722
TAFOKC
TAF
KOKC 301722Z 3018/3118 01006KT P6SM SCT040
     FM310100 15005KT P6SM SKC
     FM311500 19011KT P6SM SKC=



000
FTUS44 KOUN 301501 AAA
TAFWWR
TAF AMD
KWWR 301501Z 3015/3112 VRB03KT P6SM SKC
      TEMPO 3015/3016 4SM BR OVC002
     FM302000 18010KT P6SM SCT250=



000
FTUS44 KOUN 301501 AAA
TAFWWR
TAF AMD
KWWR 301501Z 3015/3112 VRB03KT P6SM SKC
      TEMPO 3015/3016 4SM BR OVC002
     FM302000 18010KT P6SM SCT250=



000
FTUS44 KOUN 301501 AAA
TAFWWR
TAF AMD
KWWR 301501Z 3015/3112 VRB03KT P6SM SKC
      TEMPO 3015/3016 4SM BR OVC002
     FM302000 18010KT P6SM SCT250=



000
FTUS44 KOUN 301501 AAA
TAFWWR
TAF AMD
KWWR 301501Z 3015/3112 VRB03KT P6SM SKC
      TEMPO 3015/3016 4SM BR OVC002
     FM302000 18010KT P6SM SCT250=



000
FTUS44 KOUN 301500 AAA
TAFPNC
TAF AMD
KPNC 301500Z 3015/3112 13006KT P6SM SCT040
      TEMPO 3015/3017 4SM BR BKN030=



000
FTUS44 KOUN 301500 AAA
TAFPNC
TAF AMD
KPNC 301500Z 3015/3112 13006KT P6SM SCT040
      TEMPO 3015/3017 4SM BR BKN030=



000
FTUS44 KOUN 301446 AAA
TAFGAG
TAF AMD
KGAG 301446Z 3015/3112 VRB05KT P6SM SKC
     FM302000 17010KT P6SM SCT250=



000
FTUS44 KOUN 301446 AAA
TAFGAG
TAF AMD
KGAG 301446Z 3015/3112 VRB05KT P6SM SKC
     FM302000 17010KT P6SM SCT250=



000
FTUS44 KOUN 301446 AAA
TAFGAG
TAF AMD
KGAG 301446Z 3015/3112 VRB05KT P6SM SKC
     FM302000 17010KT P6SM SCT250=



000
FTUS44 KOUN 301409 AAB
TAFOUN
TAF AMD
KOUN 301409Z 3014/3112 36005KT P6SM SCT040
     FM310100 14006KT P6SM SKC=



000
FTUS44 KOUN 301409 AAB
TAFOUN
TAF AMD
KOUN 301409Z 3014/3112 36005KT P6SM SCT040
     FM310100 14006KT P6SM SKC=



000
FTUS44 KOUN 301409 AAA
TAFOKC
TAF AMD
KOKC 301409Z 3014/3112 36006KT P6SM SCT040
     FM310100 15007KT P6SM SKC=



000
FTUS44 KOUN 301409 AAB
TAFOUN
TAF AMD
KOUN 301409Z 3014/3112 36005KT P6SM SCT040
     FM310100 14006KT P6SM SKC=



000
FTUS44 KOUN 301409 AAA
TAFOKC
TAF AMD
KOKC 301409Z 3014/3112 36006KT P6SM SCT040
     FM310100 15007KT P6SM SKC=



000
FTUS44 KOUN 301409 AAA
TAFOKC
TAF AMD
KOKC 301409Z 3014/3112 36006KT P6SM SCT040
     FM310100 15007KT P6SM SKC=



000
FTUS44 KOUN 301409 AAA
TAFOKC
TAF AMD
KOKC 301409Z 3014/3112 36006KT P6SM SCT040
     FM310100 15007KT P6SM SKC=



000
FTUS44 KOUN 301133
TAFPNC
TAF
KPNC 301133Z 3012/3112 02003KT 4SM BR SCT003
      TEMPO 3012/3015 1/2SM FG BKN003
     FM301500 13006KT P6SM SCT040=



000
FTUS44 KOUN 301133
TAFHBR
TAF
KHBR 301133Z 3012/3112 02005KT P6SM SCT250
     FM310000 16008KT P6SM SCT250=



000
FTUS44 KOUN 301133
TAFSPS
TAF
KSPS 301133Z 3012/3112 01005KT P6SM SCT040 SCT250
     FM310000 17008KT P6SM SCT250=



000
FTUS44 KOUN 301133
TAFOKC
TAF
KOKC 301133Z 3012/3112 36006KT P6SM SCT040
      TEMPO 3012/3015 4SM BR
     FM310100 15007KT P6SM SKC=



000
FTUS44 KOUN 301133
TAFWWR
TAF
KWWR 301133Z 3012/3112 32003KT 1/2SM FG OVC002
      TEMPO 3013/3015 1SM BR SCT002
     FM301500 13006KT P6SM SCT250
     FM302000 18010KT P6SM SCT250=



000
FTUS44 KOUN 301133
TAFOUN
TAF
KOUN 301133Z 3012/3112 36005KT P6SM SCT040
      TEMPO 3012/3015 5SM BR
     FM310100 14006KT P6SM SKC=



000
FTUS44 KOUN 301133
TAFLAW
TAF
KLAW 301133Z 3012/3112 01006KT P6SM SCT040 SCT250
     FM310000 13006KT P6SM SCT250=



000
FTUS44 KOUN 301133
TAFGAG
TAF
KGAG 301133Z 3012/3112 VRB04KT 2SM BR FEW003
      TEMPO 3012/3015 1/2SM FG BKN003
     FM301600 12005KT P6SM SCT250
     FM302000 17010KT P6SM SCT250=



000
FTUS44 KOUN 301133
TAFOUN
TAF
KOUN 301133Z 3012/3112 36005KT P6SM SCT040
      TEMPO 3012/3015 5SM BR
     FM310100 14006KT P6SM SKC=



000
FTUS44 KOUN 301133
TAFOKC
TAF
KOKC 301133Z 3012/3112 36006KT P6SM SCT040
      TEMPO 3012/3015 4SM BR
     FM310100 15007KT P6SM SKC=



000
FTUS44 KOUN 301133
TAFLAW
TAF
KLAW 301133Z 3012/3112 01006KT P6SM SCT040 SCT250
     FM310000 13006KT P6SM SCT250=



000
FTUS44 KOUN 301133
TAFSPS
TAF
KSPS 301133Z 3012/3112 01005KT P6SM SCT040 SCT250
     FM310000 17008KT P6SM SCT250=



000
FTUS44 KOUN 301133
TAFHBR
TAF
KHBR 301133Z 3012/3112 02005KT P6SM SCT250
     FM310000 16008KT P6SM SCT250=



000
FTUS44 KOUN 301133
TAFGAG
TAF
KGAG 301133Z 3012/3112 VRB04KT 2SM BR FEW003
      TEMPO 3012/3015 1/2SM FG BKN003
     FM301600 12005KT P6SM SCT250
     FM302000 17010KT P6SM SCT250=



000
FTUS44 KOUN 301133
TAFWWR
TAF
KWWR 301133Z 3012/3112 32003KT 1/2SM FG OVC002
      TEMPO 3013/3015 1SM BR SCT002
     FM301500 13006KT P6SM SCT250
     FM302000 18010KT P6SM SCT250=



000
FTUS44 KOUN 301133
TAFPNC
TAF
KPNC 301133Z 3012/3112 02003KT 4SM BR SCT003
      TEMPO 3012/3015 1/2SM FG BKN003
     FM301500 13006KT P6SM SCT040=



000
FTUS44 KOUN 301049 AAA
TAFPNC
TAF AMD
KPNC 301049Z 3011/3106 01006KT P6SM SKC
      TEMPO 3011/3014 2SM BR
     FM301700 VRB05KT P6SM SCT040
     FM310100 13005KT P6SM SKC=



000
FTUS44 KOUN 301049 AAA
TAFPNC
TAF AMD
KPNC 301049Z 3011/3106 01006KT P6SM SKC
      TEMPO 3011/3014 2SM BR
     FM301700 VRB05KT P6SM SCT040
     FM310100 13005KT P6SM SKC=



000
FTUS44 KOUN 300920 AAA
TAFWWR
TAF AMD
KWWR 300920Z 3009/3106 VRB05KT 4SM BR SKC
      TEMPO 3010/3014 1SM BR
     FM302000 14007KT P6SM SKC=



000
FTUS44 KOUN 300920 AAA
TAFWWR
TAF AMD
KWWR 300920Z 3009/3106 VRB05KT 4SM BR SKC
      TEMPO 3010/3014 1SM BR
     FM302000 14007KT P6SM SKC=



000
FTUS44 KOUN 300520
TAFSPS
TAF
KSPS 300520Z 3006/3106 36006KT P6SM BKN250
     FM310000 11006KT P6SM SKC=



000
FTUS44 KOUN 300520
TAFGAG
TAF
KGAG 300520Z 3006/3106 VRB05KT P6SM SKC
     FM302000 14007KT P6SM SKC=



000
FTUS44 KOUN 300520
TAFOKC
TAF
KOKC 300520Z 3006/3106 02007KT P6SM SCT250
      TEMPO 3013/3017 BKN030
     FM301700 35006KT P6SM SCT040 SCT250
     FM310200 14006KT P6SM SKC=



000
FTUS44 KOUN 300520
TAFWWR
TAF
KWWR 300520Z 3006/3106 VRB05KT P6SM SKC
     FM302000 14007KT P6SM SKC=



000
FTUS44 KOUN 300520
TAFHBR
TAF
KHBR 300520Z 3006/3106 03006KT P6SM SCT250
     FM310000 14006KT P6SM SKC=



000
FTUS44 KOUN 300520
TAFLAW
TAF
KLAW 300520Z 3006/3106 02006KT P6SM SCT250
     FM310000 11006KT P6SM SKC=



000
FTUS44 KOUN 300520
TAFOKC
TAF
KOKC 300520Z 3006/3106 02007KT P6SM SCT250
      TEMPO 3013/3017 BKN030
     FM301700 35006KT P6SM SCT040 SCT250
     FM310200 14006KT P6SM SKC=



000
FTUS44 KOUN 300520
TAFOUN
TAF
KOUN 300520Z 3006/3106 03006KT P6SM BKN250
      TEMPO 3013/3017 BKN030
     FM301700 35006KT P6SM SCT040 SCT250
     FM310200 14006KT P6SM SKC=



000
FTUS44 KOUN 300520
TAFLAW
TAF
KLAW 300520Z 3006/3106 02006KT P6SM SCT250
     FM310000 11006KT P6SM SKC=



000
FTUS44 KOUN 300520
TAFWWR
TAF
KWWR 300520Z 3006/3106 VRB05KT P6SM SKC
     FM302000 14007KT P6SM SKC=



000
FTUS44 KOUN 300520
TAFOUN
TAF
KOUN 300520Z 3006/3106 03006KT P6SM BKN250
      TEMPO 3013/3017 BKN030
     FM301700 35006KT P6SM SCT040 SCT250
     FM310200 14006KT P6SM SKC=



000
FTUS44 KOUN 300520
TAFSPS
TAF
KSPS 300520Z 3006/3106 36006KT P6SM BKN250
     FM310000 11006KT P6SM SKC=



000
FTUS44 KOUN 300520
TAFPNC
TAF
KPNC 300520Z 3006/3106 01005KT P6SM SCT050
     FM301100 01006KT P6SM BKN030
     FM301700 VRB05KT P6SM SCT040
     FM310100 13005KT P6SM SKC=



000
FTUS44 KOUN 300520
TAFOUN
TAF
KOUN 300520Z 3006/3106 03006KT P6SM BKN250
      TEMPO 3013/3017 BKN030
     FM301700 35006KT P6SM SCT040 SCT250
     FM310200 14006KT P6SM SKC=



000
FTUS44 KOUN 300520
TAFPNC
TAF
KPNC 300520Z 3006/3106 01005KT P6SM SCT050
     FM301100 01006KT P6SM BKN030
     FM301700 VRB05KT P6SM SCT040
     FM310100 13005KT P6SM SKC=



000
FTUS44 KOUN 300520
TAFPNC
TAF
KPNC 300520Z 3006/3106 01005KT P6SM SCT050
     FM301100 01006KT P6SM BKN030
     FM301700 VRB05KT P6SM SCT040
     FM310100 13005KT P6SM SKC=



000
FTUS44 KOUN 300520
TAFWWR
TAF
KWWR 300520Z 3006/3106 VRB05KT P6SM SKC
     FM302000 14007KT P6SM SKC=



000
FTUS44 KOUN 300520
TAFSPS
TAF
KSPS 300520Z 3006/3106 36006KT P6SM BKN250
     FM310000 11006KT P6SM SKC=



000
FTUS44 KOUN 300520
TAFOKC
TAF
KOKC 300520Z 3006/3106 02007KT P6SM SCT250
      TEMPO 3013/3017 BKN030
     FM301700 35006KT P6SM SCT040 SCT250
     FM310200 14006KT P6SM SKC=



000
FTUS44 KOUN 300520
TAFHBR
TAF
KHBR 300520Z 3006/3106 03006KT P6SM SCT250
     FM310000 14006KT P6SM SKC=



000
FTUS44 KOUN 300520
TAFGAG
TAF
KGAG 300520Z 3006/3106 VRB05KT P6SM SKC
     FM302000 14007KT P6SM SKC=



000
FTUS44 KOUN 300520
TAFHBR
TAF
KHBR 300520Z 3006/3106 03006KT P6SM SCT250
     FM310000 14006KT P6SM SKC=



000
FTUS44 KOUN 300520
TAFGAG
TAF
KGAG 300520Z 3006/3106 VRB05KT P6SM SKC
     FM302000 14007KT P6SM SKC=



000
FTUS44 KOUN 292322
TAFOUN
TAF
KOUN 292322Z 3000/3024 01006KT P6SM SCT250
     FM302000 VRB05KT P6SM SCT040 SCT250=



000
FTUS44 KOUN 292322
TAFPNC
TAF
KPNC 292322Z 3000/3024 01005KT P6SM SCT050
      TEMPO 3011/3015 BKN030=



000
FTUS44 KOUN 292322
TAFWWR
TAF
KWWR 292322Z 3000/3024 03005KT P6SM SKC
     FM302000 13009KT P6SM SKC=



000
FTUS44 KOUN 292322
TAFOUN
TAF
KOUN 292322Z 3000/3024 01006KT P6SM SCT250
     FM302000 VRB05KT P6SM SCT040 SCT250=



000
FTUS44 KOUN 292322
TAFOKC
TAF
KOKC 292322Z 3000/3024 01007KT P6SM SCT250
     FM302000 VRB05KT P6SM SCT040 SCT250=



000
FTUS44 KOUN 292322
TAFGAG
TAF
KGAG 292322Z 3000/3024 03005KT P6SM SKC
     FM302000 13008KT P6SM SKC=



000
FTUS44 KOUN 292322
TAFSPS
TAF
KSPS 292322Z 3000/3024 36006KT P6SM BKN250=



000
FTUS44 KOUN 292322
TAFHBR
TAF
KHBR 292322Z 3000/3024 02008KT P6SM SCT250=



000
FTUS44 KOUN 292322
TAFOKC
TAF
KOKC 292322Z 3000/3024 01007KT P6SM SCT250
     FM302000 VRB05KT P6SM SCT040 SCT250=



000
FTUS44 KOUN 292322
TAFSPS
TAF
KSPS 292322Z 3000/3024 36006KT P6SM BKN250=



000
FTUS44 KOUN 292322
TAFGAG
TAF
KGAG 292322Z 3000/3024 03005KT P6SM SKC
     FM302000 13008KT P6SM SKC=



000
FTUS44 KOUN 292322
TAFHBR
TAF
KHBR 292322Z 3000/3024 02008KT P6SM SCT250=



000
FTUS44 KOUN 292322
TAFOUN
TAF
KOUN 292322Z 3000/3024 01006KT P6SM SCT250
     FM302000 VRB05KT P6SM SCT040 SCT250=



000
FTUS44 KOUN 292322
TAFOKC
TAF
KOKC 292322Z 3000/3024 01007KT P6SM SCT250
     FM302000 VRB05KT P6SM SCT040 SCT250=



000
FTUS44 KOUN 292322
TAFLAW
TAF
KLAW 292322Z 3000/3024 03006KT P6SM BKN250=



000
FTUS44 KOUN 292322
TAFGAG
TAF
KGAG 292322Z 3000/3024 03005KT P6SM SKC
     FM302000 13008KT P6SM SKC=



000
FTUS44 KOUN 292322
TAFWWR
TAF
KWWR 292322Z 3000/3024 03005KT P6SM SKC
     FM302000 13009KT P6SM SKC=



000
FTUS44 KOUN 292322
TAFPNC
TAF
KPNC 292322Z 3000/3024 01005KT P6SM SCT050
      TEMPO 3011/3015 BKN030=



000
FTUS44 KOUN 292322
TAFSPS
TAF
KSPS 292322Z 3000/3024 36006KT P6SM BKN250=



000
FTUS44 KOUN 292322
TAFLAW
TAF
KLAW 292322Z 3000/3024 03006KT P6SM BKN250=



000
FTUS44 KOUN 292322
TAFGAG
TAF
KGAG 292322Z 3000/3024 03005KT P6SM SKC
     FM302000 13008KT P6SM SKC=



000
FTUS44 KOUN 292322
TAFOKC
TAF
KOKC 292322Z 3000/3024 01007KT P6SM SCT250
     FM302000 VRB05KT P6SM SCT040 SCT250=



000
FTUS44 KOUN 292322
TAFPNC
TAF
KPNC 292322Z 3000/3024 01005KT P6SM SCT050
      TEMPO 3011/3015 BKN030=



000
FTUS44 KOUN 292322
TAFWWR
TAF
KWWR 292322Z 3000/3024 03005KT P6SM SKC
     FM302000 13009KT P6SM SKC=



000
FTUS44 KOUN 292322
TAFOUN
TAF
KOUN 292322Z 3000/3024 01006KT P6SM SCT250
     FM302000 VRB05KT P6SM SCT040 SCT250=



000
FTUS44 KOUN 292322
TAFHBR
TAF
KHBR 292322Z 3000/3024 02008KT P6SM SCT250=



000
FTUS44 KOUN 292322
TAFPNC
TAF
KPNC 292322Z 3000/3024 01005KT P6SM SCT050
      TEMPO 3011/3015 BKN030=



000
FTUS44 KOUN 292322
TAFHBR
TAF
KHBR 292322Z 3000/3024 02008KT P6SM SCT250=



000
FTUS44 KOUN 292322
TAFWWR
TAF
KWWR 292322Z 3000/3024 03005KT P6SM SKC
     FM302000 13009KT P6SM SKC=



000
FTUS44 KOUN 292322
TAFLAW
TAF
KLAW 292322Z 3000/3024 03006KT P6SM BKN250=



000
FTUS44 KOUN 292322
TAFSPS
TAF
KSPS 292322Z 3000/3024 36006KT P6SM BKN250=



000
FTUS44 KOUN 292322
TAFLAW
TAF
KLAW 292322Z 3000/3024 03006KT P6SM BKN250=



000
FTUS44 KOUN 291730
TAFOUN
TAF
KOUN 291730Z 2918/3018 36007KT P6SM FEW040 SCT250=



000
FTUS44 KOUN 291730
TAFWWR
TAF
KWWR 291730Z 2918/3018 02011KT P6SM FEW250
     FM300030 03005KT P6SM SKC=



000
FTUS44 KOUN 291730
TAFSPS
TAF
KSPS 291730Z 2918/3018 36006KT P6SM BKN250=



000
FTUS44 KOUN 291730
TAFGAG
TAF
KGAG 291730Z 2918/3018 02012KT P6SM FEW250
     FM300030 03005KT P6SM SKC=



000
FTUS44 KOUN 291730
TAFWWR
TAF
KWWR 291730Z 2918/3018 02011KT P6SM FEW250
     FM300030 03005KT P6SM SKC=



000
FTUS44 KOUN 291730
TAFLAW
TAF
KLAW 291730Z 2918/3018 03006KT P6SM SCT250=



000
FTUS44 KOUN 291730
TAFPNC
TAF
KPNC 291730Z 2918/3018 02009KT P6SM BKN040
     FM300000 03004KT P6SM FEW050=



000
FTUS44 KOUN 291730
TAFPNC
TAF
KPNC 291730Z 2918/3018 02009KT P6SM BKN040
     FM300000 03004KT P6SM FEW050=



000
FTUS44 KOUN 291730
TAFPNC
TAF
KPNC 291730Z 2918/3018 02009KT P6SM BKN040
     FM300000 03004KT P6SM FEW050=



000
FTUS44 KOUN 291730
TAFOUN
TAF
KOUN 291730Z 2918/3018 36007KT P6SM FEW040 SCT250=



000
FTUS44 KOUN 291730
TAFOUN
TAF
KOUN 291730Z 2918/3018 36007KT P6SM FEW040 SCT250=



000
FTUS44 KOUN 291730
TAFHBR
TAF
KHBR 291730Z 2918/3018 02012KT P6SM SCT250
     FM300100 02006KT P6SM SKC=



000
FTUS44 KOUN 291730
TAFWWR
TAF
KWWR 291730Z 2918/3018 02011KT P6SM FEW250
     FM300030 03005KT P6SM SKC=



000
FTUS44 KOUN 291730
TAFHBR
TAF
KHBR 291730Z 2918/3018 02012KT P6SM SCT250
     FM300100 02006KT P6SM SKC=



000
FTUS44 KOUN 291730
TAFLAW
TAF
KLAW 291730Z 2918/3018 03006KT P6SM SCT250=



000
FTUS44 KOUN 291730
TAFWWR
TAF
KWWR 291730Z 2918/3018 02011KT P6SM FEW250
     FM300030 03005KT P6SM SKC=



000
FTUS44 KOUN 291730
TAFOKC
TAF
KOKC 291730Z 2918/3018 01008KT P6SM FEW040 SCT250=



000
FTUS44 KOUN 291730
TAFHBR
TAF
KHBR 291730Z 2918/3018 02012KT P6SM SCT250
     FM300100 02006KT P6SM SKC=



000
FTUS44 KOUN 291730
TAFLAW
TAF
KLAW 291730Z 2918/3018 03006KT P6SM SCT250=



000
FTUS44 KOUN 291730
TAFOUN
TAF
KOUN 291730Z 2918/3018 36007KT P6SM FEW040 SCT250=



000
FTUS44 KOUN 291730
TAFSPS
TAF
KSPS 291730Z 2918/3018 36006KT P6SM BKN250=



000
FTUS44 KOUN 291730
TAFOKC
TAF
KOKC 291730Z 2918/3018 01008KT P6SM FEW040 SCT250=



000
FTUS44 KOUN 291730
TAFSPS
TAF
KSPS 291730Z 2918/3018 36006KT P6SM BKN250=



000
FTUS44 KOUN 291730
TAFGAG
TAF
KGAG 291730Z 2918/3018 02012KT P6SM FEW250
     FM300030 03005KT P6SM SKC=



000
FTUS44 KOUN 291730
TAFLAW
TAF
KLAW 291730Z 2918/3018 03006KT P6SM SCT250=



000
FTUS44 KOUN 291730
TAFPNC
TAF
KPNC 291730Z 2918/3018 02009KT P6SM BKN040
     FM300000 03004KT P6SM FEW050=



000
FTUS44 KOUN 291730
TAFHBR
TAF
KHBR 291730Z 2918/3018 02012KT P6SM SCT250
     FM300100 02006KT P6SM SKC=



000
FTUS44 KOUN 291730
TAFOKC
TAF
KOKC 291730Z 2918/3018 01008KT P6SM FEW040 SCT250=



000
FTUS44 KOUN 291730
TAFSPS
TAF
KSPS 291730Z 2918/3018 36006KT P6SM BKN250=



000
FTUS44 KOUN 291730
TAFOKC
TAF
KOKC 291730Z 2918/3018 01008KT P6SM FEW040 SCT250=



000
FTUS44 KOUN 291730
TAFGAG
TAF
KGAG 291730Z 2918/3018 02012KT P6SM FEW250
     FM300030 03005KT P6SM SKC=



000
FTUS44 KOUN 291730
TAFGAG
TAF
KGAG 291730Z 2918/3018 02012KT P6SM FEW250
     FM300030 03005KT P6SM SKC=



000
FTUS44 KOUN 291136
TAFHBR
TAF
KHBR 291136Z 2912/3012 36010KT P6SM SCT100 BKN250
     FM292100 05009KT P6SM SCT250=



000
FTUS44 KOUN 291136
TAFPNC
TAF
KPNC 291136Z 2912/3012 35010KT P6SM SCT250
      TEMPO 2912/2915 2SM BR
     FM291700 03007KT P6SM SCT040 SCT250=



000
FTUS44 KOUN 291136
TAFOKC
TAF
KOKC 291136Z 2912/3012 VRB04KT P6SM SCT100 BKN250
     FM291600 36010KT P6SM SCT040 SCT250=



000
FTUS44 KOUN 291136
TAFSPS
TAF
KSPS 291136Z 2912/3012 15006KT P6SM SCT100 BKN250
     FM291800 36010KT P6SM SCT250=



000
FTUS44 KOUN 291136
TAFOUN
TAF
KOUN 291136Z 2912/3012 VRB03KT P6SM SCT100 BKN250
     FM291600 36008KT P6SM SCT040 SCT250=



000
FTUS44 KOUN 291136
TAFLAW
TAF
KLAW 291136Z 2912/3012 16006KT P6SM SCT100 BKN250
     FM291600 36010KT P6SM SCT100 BKN250
     FM292200 04006KT P6SM SCT250=



000
FTUS44 KOUN 291136
TAFPNC
TAF
KPNC 291136Z 2912/3012 35010KT P6SM SCT250
      TEMPO 2912/2915 2SM BR
     FM291700 03007KT P6SM SCT040 SCT250=



000
FTUS44 KOUN 291136
TAFWWR
TAF
KWWR 291136Z 2912/3012 36011KT P6SM SCT250=



000
FTUS44 KOUN 291136
TAFGAG
TAF
KGAG 291136Z 2912/3012 36012KT P6SM SCT250=



000
FTUS44 KOUN 291136
TAFLAW
TAF
KLAW 291136Z 2912/3012 16006KT P6SM SCT100 BKN250
     FM291600 36010KT P6SM SCT100 BKN250
     FM292200 04006KT P6SM SCT250=



000
FTUS44 KOUN 291136
TAFHBR
TAF
KHBR 291136Z 2912/3012 36010KT P6SM SCT100 BKN250
     FM292100 05009KT P6SM SCT250=



000
FTUS44 KOUN 291136
TAFOUN
TAF
KOUN 291136Z 2912/3012 VRB03KT P6SM SCT100 BKN250
     FM291600 36008KT P6SM SCT040 SCT250=



000
FTUS44 KOUN 291136
TAFGAG
TAF
KGAG 291136Z 2912/3012 36012KT P6SM SCT250=



000
FTUS44 KOUN 291136
TAFSPS
TAF
KSPS 291136Z 2912/3012 15006KT P6SM SCT100 BKN250
     FM291800 36010KT P6SM SCT250=



000
FTUS44 KOUN 291136
TAFOKC
TAF
KOKC 291136Z 2912/3012 VRB04KT P6SM SCT100 BKN250
     FM291600 36010KT P6SM SCT040 SCT250=



000
FTUS44 KOUN 291136
TAFSPS
TAF
KSPS 291136Z 2912/3012 15006KT P6SM SCT100 BKN250
     FM291800 36010KT P6SM SCT250=



000
FTUS44 KOUN 291136
TAFOUN
TAF
KOUN 291136Z 2912/3012 VRB03KT P6SM SCT100 BKN250
     FM291600 36008KT P6SM SCT040 SCT250=



000
FTUS44 KOUN 291136
TAFGAG
TAF
KGAG 291136Z 2912/3012 36012KT P6SM SCT250=



000
FTUS44 KOUN 291136
TAFWWR
TAF
KWWR 291136Z 2912/3012 36011KT P6SM SCT250=



000
FTUS44 KOUN 291136
TAFLAW
TAF
KLAW 291136Z 2912/3012 16006KT P6SM SCT100 BKN250
     FM291600 36010KT P6SM SCT100 BKN250
     FM292200 04006KT P6SM SCT250=



000
FTUS44 KOUN 291136
TAFPNC
TAF
KPNC 291136Z 2912/3012 35010KT P6SM SCT250
      TEMPO 2912/2915 2SM BR
     FM291700 03007KT P6SM SCT040 SCT250=



000
FTUS44 KOUN 291136
TAFHBR
TAF
KHBR 291136Z 2912/3012 36010KT P6SM SCT100 BKN250
     FM292100 05009KT P6SM SCT250=



000
FTUS44 KOUN 291136
TAFWWR
TAF
KWWR 291136Z 2912/3012 36011KT P6SM SCT250=



000
FTUS44 KOUN 291136
TAFOKC
TAF
KOKC 291136Z 2912/3012 VRB04KT P6SM SCT100 BKN250
     FM291600 36010KT P6SM SCT040 SCT250=



000
FTUS44 KOUN 291045 AAA
TAFPNC
TAF AMD
KPNC 291045Z 2911/3006 01005KT 4SM BR SCT250
     FM291400 35009KT P6SM SKC=



000
FTUS44 KOUN 291045 AAA
TAFPNC
TAF AMD
KPNC 291045Z 2911/3006 01005KT 4SM BR SCT250
     FM291400 35009KT P6SM SKC=



000
FTUS44 KOUN 291045 AAA
TAFPNC
TAF AMD
KPNC 291045Z 2911/3006 01005KT 4SM BR SCT250
     FM291400 35009KT P6SM SKC=



000
FTUS44 KOUN 290520
TAFGAG
TAF
KGAG 290520Z 2906/3006 35005KT P6SM BKN250
     FM291500 02010KT P6SM SKC
     FM300200 06005KT P6SM SKC=



000
FTUS44 KOUN 290520
TAFOKC
TAF
KOKC 290520Z 2906/3006 17008KT P6SM SCT120 BKN250
     FM291100 19007KT P6SM SCT250
     FM291600 01009KT P6SM FEW250=



000
FTUS44 KOUN 290520
TAFSPS
TAF
KSPS 290520Z 2906/3006 16008KT P6SM FEW050 BKN120
      TEMPO 2906/2908 -SHRA
     FM291400 21010KT P6SM SCT120 BKN250
     FM291900 02007KT P6SM SCT120 SCT250=



000
FTUS44 KOUN 290520
TAFGAG
TAF
KGAG 290520Z 2906/3006 35005KT P6SM BKN250
     FM291500 02010KT P6SM SKC
     FM300200 06005KT P6SM SKC=



000
FTUS44 KOUN 290520
TAFLAW
TAF
KLAW 290520Z 2906/3006 15006KT P6SM SCT120 BKN250
     FM291600 01009KT P6SM FEW120 SCT250
     FM300100 02006KT P6SM SKC=



000
FTUS44 KOUN 290520
TAFOUN
TAF
KOUN 290520Z 2906/3006 17008KT P6SM SCT120 BKN250
     FM291100 19007KT P6SM SCT250
     FM291700 01008KT P6SM FEW250=



000
FTUS44 KOUN 290520
TAFPNC
TAF
KPNC 290520Z 2906/3006 16008KT P6SM SCT120 SCT250
     FM291000 01005KT P6SM SCT250
     FM291600 35009KT P6SM SKC=



000
FTUS44 KOUN 290520
TAFSPS
TAF
KSPS 290520Z 2906/3006 16008KT P6SM FEW050 BKN120
      TEMPO 2906/2908 -SHRA
     FM291400 21010KT P6SM SCT120 BKN250
     FM291900 02007KT P6SM SCT120 SCT250=



000
FTUS44 KOUN 290520
TAFWWR
TAF
KWWR 290520Z 2906/3006 35005KT P6SM BKN250
     FM291500 02010KT P6SM SKC
     FM300200 06005KT P6SM SKC=



000
FTUS44 KOUN 290520
TAFSPS
TAF
KSPS 290520Z 2906/3006 16008KT P6SM FEW050 BKN120
      TEMPO 2906/2908 -SHRA
     FM291400 21010KT P6SM SCT120 BKN250
     FM291900 02007KT P6SM SCT120 SCT250=



000
FTUS44 KOUN 290520
TAFGAG
TAF
KGAG 290520Z 2906/3006 35005KT P6SM BKN250
     FM291500 02010KT P6SM SKC
     FM300200 06005KT P6SM SKC=



000
FTUS44 KOUN 290520
TAFHBR
TAF
KHBR 290520Z 2906/3006 18007KT P6SM SCT120 BKN250
     FM291200 01007KT P6SM FEW120 SCT250
     FM291500 02011KT P6SM SKC
     FM300200 04006KT P6SM SKC=



000
FTUS44 KOUN 290520
TAFGAG
TAF
KGAG 290520Z 2906/3006 35005KT P6SM BKN250
     FM291500 02010KT P6SM SKC
     FM300200 06005KT P6SM SKC=



000
FTUS44 KOUN 290520
TAFPNC
TAF
KPNC 290520Z 2906/3006 16008KT P6SM SCT120 SCT250
     FM291000 01005KT P6SM SCT250
     FM291600 35009KT P6SM SKC=



000
FTUS44 KOUN 290520
TAFWWR
TAF
KWWR 290520Z 2906/3006 35005KT P6SM BKN250
     FM291500 02010KT P6SM SKC
     FM300200 06005KT P6SM SKC=



000
FTUS44 KOUN 290520
TAFLAW
TAF
KLAW 290520Z 2906/3006 15006KT P6SM SCT120 BKN250
     FM291600 01009KT P6SM FEW120 SCT250
     FM300100 02006KT P6SM SKC=



000
FTUS44 KOUN 290520
TAFOKC
TAF
KOKC 290520Z 2906/3006 17008KT P6SM SCT120 BKN250
     FM291100 19007KT P6SM SCT250
     FM291600 01009KT P6SM FEW250=



000
FTUS44 KOUN 290520
TAFLAW
TAF
KLAW 290520Z 2906/3006 15006KT P6SM SCT120 BKN250
     FM291600 01009KT P6SM FEW120 SCT250
     FM300100 02006KT P6SM SKC=



000
FTUS44 KOUN 290520
TAFHBR
TAF
KHBR 290520Z 2906/3006 18007KT P6SM SCT120 BKN250
     FM291200 01007KT P6SM FEW120 SCT250
     FM291500 02011KT P6SM SKC
     FM300200 04006KT P6SM SKC=



000
FTUS44 KOUN 290520
TAFPNC
TAF
KPNC 290520Z 2906/3006 16008KT P6SM SCT120 SCT250
     FM291000 01005KT P6SM SCT250
     FM291600 35009KT P6SM SKC=



000
FTUS44 KOUN 290520
TAFWWR
TAF
KWWR 290520Z 2906/3006 35005KT P6SM BKN250
     FM291500 02010KT P6SM SKC
     FM300200 06005KT P6SM SKC=



000
FTUS44 KOUN 290520
TAFWWR
TAF
KWWR 290520Z 2906/3006 35005KT P6SM BKN250
     FM291500 02010KT P6SM SKC
     FM300200 06005KT P6SM SKC=



000
FTUS44 KOUN 290520
TAFOUN
TAF
KOUN 290520Z 2906/3006 17008KT P6SM SCT120 BKN250
     FM291100 19007KT P6SM SCT250
     FM291700 01008KT P6SM FEW250=



000
FTUS44 KOUN 290520
TAFSPS
TAF
KSPS 290520Z 2906/3006 16008KT P6SM FEW050 BKN120
      TEMPO 2906/2908 -SHRA
     FM291400 21010KT P6SM SCT120 BKN250
     FM291900 02007KT P6SM SCT120 SCT250=



000
FTUS44 KOUN 290520
TAFPNC
TAF
KPNC 290520Z 2906/3006 16008KT P6SM SCT120 SCT250
     FM291000 01005KT P6SM SCT250
     FM291600 35009KT P6SM SKC=



000
FTUS44 KOUN 290520
TAFOKC
TAF
KOKC 290520Z 2906/3006 17008KT P6SM SCT120 BKN250
     FM291100 19007KT P6SM SCT250
     FM291600 01009KT P6SM FEW250=



000
FTUS44 KOUN 290520
TAFLAW
TAF
KLAW 290520Z 2906/3006 15006KT P6SM SCT120 BKN250
     FM291600 01009KT P6SM FEW120 SCT250
     FM300100 02006KT P6SM SKC=



000
FTUS44 KOUN 290520
TAFHBR
TAF
KHBR 290520Z 2906/3006 18007KT P6SM SCT120 BKN250
     FM291200 01007KT P6SM FEW120 SCT250
     FM291500 02011KT P6SM SKC
     FM300200 04006KT P6SM SKC=



000
FTUS44 KOUN 290520
TAFHBR
TAF
KHBR 290520Z 2906/3006 18007KT P6SM SCT120 BKN250
     FM291200 01007KT P6SM FEW120 SCT250
     FM291500 02011KT P6SM SKC
     FM300200 04006KT P6SM SKC=



000
FTUS44 KOUN 290243 AAA
TAFSPS
TAF AMD
KSPS 290243Z 2903/2924 15008KT P6SM BKN120
      TEMPO 2903/2905 -SHRA BKN060
     FM291700 18005KT P6SM SCT120=



000
FTUS44 KOUN 290243 AAA
TAFSPS
TAF AMD
KSPS 290243Z 2903/2924 15008KT P6SM BKN120
      TEMPO 2903/2905 -SHRA BKN060
     FM291700 18005KT P6SM SCT120=



000
FTUS44 KOUN 290243 AAA
TAFSPS
TAF AMD
KSPS 290243Z 2903/2924 15008KT P6SM BKN120
      TEMPO 2903/2905 -SHRA BKN060
     FM291700 18005KT P6SM SCT120=



000
FTUS44 KOUN 290243 AAA
TAFSPS
TAF AMD
KSPS 290243Z 2903/2924 15008KT P6SM BKN120
      TEMPO 2903/2905 -SHRA BKN060
     FM291700 18005KT P6SM SCT120=



000
FTUS44 KOUN 282326
TAFOKC
TAF
KOKC 282326Z 2900/2924 16009KT P6SM BKN120
     FM291100 18007KT P6SM FEW120 SCT250
     FM291700 01007KT P6SM SCT250=



000
FTUS44 KOUN 282326
TAFSPS
TAF
KSPS 282326Z 2900/2924 15008KT P6SM FEW050 BKN120
      TEMPO 2900/2902 -SHRA BKN060
     FM291700 18005KT P6SM SCT120=



000
FTUS44 KOUN 282326
TAFSPS
TAF
KSPS 282326Z 2900/2924 15008KT P6SM FEW050 BKN120
      TEMPO 2900/2902 -SHRA BKN060
     FM291700 18005KT P6SM SCT120=



000
FTUS44 KOUN 282326
TAFLAW
TAF
KLAW 282326Z 2900/2924 15007KT P6SM FEW050 BKN120
     FM291700 02007KT P6SM SCT120=



000
FTUS44 KOUN 282326
TAFPNC
TAF
KPNC 282326Z 2900/2924 16008KT P6SM SCT120 SCT250
     FM291000 02005KT P6SM SKC
     FM291600 34009KT P6SM SKC=



000
FTUS44 KOUN 282326
TAFOUN
TAF
KOUN 282326Z 2900/2924 15008KT P6SM BKN120
     FM291100 18007KT P6SM FEW120 SCT250
     FM291800 01007KT P6SM SCT250=



000
FTUS44 KOUN 282326
TAFGAG
TAF
KGAG 282326Z 2900/2924 35007KT P6SM FEW080 SCT250
     FM291500 03010KT P6SM SKC=



000
FTUS44 KOUN 282326
TAFHBR
TAF
KHBR 282326Z 2900/2924 16007KT P6SM BKN120
     FM291100 35006KT P6SM FEW120
     FM291500 02011KT P6SM SKC=



000
FTUS44 KOUN 282326
TAFOKC
TAF
KOKC 282326Z 2900/2924 16009KT P6SM BKN120
     FM291100 18007KT P6SM FEW120 SCT250
     FM291700 01007KT P6SM SCT250=



000
FTUS44 KOUN 282326
TAFWWR
TAF
KWWR 282326Z 2900/2924 35007KT P6SM FEW080 SCT250
     FM291500 03010KT P6SM SKC=



000
FTUS44 KOUN 282326
TAFOKC
TAF
KOKC 282326Z 2900/2924 16009KT P6SM BKN120
     FM291100 18007KT P6SM FEW120 SCT250
     FM291700 01007KT P6SM SCT250=



000
FTUS44 KOUN 282326
TAFOUN
TAF
KOUN 282326Z 2900/2924 15008KT P6SM BKN120
     FM291100 18007KT P6SM FEW120 SCT250
     FM291800 01007KT P6SM SCT250=



000
FTUS44 KOUN 282326
TAFGAG
TAF
KGAG 282326Z 2900/2924 35007KT P6SM FEW080 SCT250
     FM291500 03010KT P6SM SKC=



000
FTUS44 KOUN 282326
TAFWWR
TAF
KWWR 282326Z 2900/2924 35007KT P6SM FEW080 SCT250
     FM291500 03010KT P6SM SKC=



000
FTUS44 KOUN 282326
TAFLAW
TAF
KLAW 282326Z 2900/2924 15007KT P6SM FEW050 BKN120
     FM291700 02007KT P6SM SCT120=



000
FTUS44 KOUN 282326
TAFHBR
TAF
KHBR 282326Z 2900/2924 16007KT P6SM BKN120
     FM291100 35006KT P6SM FEW120
     FM291500 02011KT P6SM SKC=



000
FTUS44 KOUN 282326
TAFPNC
TAF
KPNC 282326Z 2900/2924 16008KT P6SM SCT120 SCT250
     FM291000 02005KT P6SM SKC
     FM291600 34009KT P6SM SKC=



000
FTUS44 KOUN 282326
TAFSPS
TAF
KSPS 282326Z 2900/2924 15008KT P6SM FEW050 BKN120
      TEMPO 2900/2902 -SHRA BKN060
     FM291700 18005KT P6SM SCT120=



000
FTUS44 KOUN 282326
TAFPNC
TAF
KPNC 282326Z 2900/2924 16008KT P6SM SCT120 SCT250
     FM291000 02005KT P6SM SKC
     FM291600 34009KT P6SM SKC=



000
FTUS44 KOUN 282326
TAFOUN
TAF
KOUN 282326Z 2900/2924 15008KT P6SM BKN120
     FM291100 18007KT P6SM FEW120 SCT250
     FM291800 01007KT P6SM SCT250=



000
FTUS44 KOUN 282326
TAFLAW
TAF
KLAW 282326Z 2900/2924 15007KT P6SM FEW050 BKN120
     FM291700 02007KT P6SM SCT120=



000
FTUS44 KOUN 282326
TAFSPS
TAF
KSPS 282326Z 2900/2924 15008KT P6SM FEW050 BKN120
      TEMPO 2900/2902 -SHRA BKN060
     FM291700 18005KT P6SM SCT120=



000
FTUS44 KOUN 282326
TAFWWR
TAF
KWWR 282326Z 2900/2924 35007KT P6SM FEW080 SCT250
     FM291500 03010KT P6SM SKC=



000
FTUS44 KOUN 282326
TAFHBR
TAF
KHBR 282326Z 2900/2924 16007KT P6SM BKN120
     FM291100 35006KT P6SM FEW120
     FM291500 02011KT P6SM SKC=



000
FTUS44 KOUN 282326
TAFGAG
TAF
KGAG 282326Z 2900/2924 35007KT P6SM FEW080 SCT250
     FM291500 03010KT P6SM SKC=



000
FTUS44 KOUN 282326
TAFOKC
TAF
KOKC 282326Z 2900/2924 16009KT P6SM BKN120
     FM291100 18007KT P6SM FEW120 SCT250
     FM291700 01007KT P6SM SCT250=



000
FTUS44 KOUN 282326
TAFLAW
TAF
KLAW 282326Z 2900/2924 15007KT P6SM FEW050 BKN120
     FM291700 02007KT P6SM SCT120=



000
FTUS44 KOUN 282326
TAFPNC
TAF
KPNC 282326Z 2900/2924 16008KT P6SM SCT120 SCT250
     FM291000 02005KT P6SM SKC
     FM291600 34009KT P6SM SKC=



000
FTUS44 KOUN 282326
TAFOUN
TAF
KOUN 282326Z 2900/2924 15008KT P6SM BKN120
     FM291100 18007KT P6SM FEW120 SCT250
     FM291800 01007KT P6SM SCT250=



000
FTUS44 KOUN 282326
TAFHBR
TAF
KHBR 282326Z 2900/2924 16007KT P6SM BKN120
     FM291100 35006KT P6SM FEW120
     FM291500 02011KT P6SM SKC=



000
FTUS44 KOUN 282326
TAFWWR
TAF
KWWR 282326Z 2900/2924 35007KT P6SM FEW080 SCT250
     FM291500 03010KT P6SM SKC=



000
FTUS44 KOUN 282326
TAFGAG
TAF
KGAG 282326Z 2900/2924 35007KT P6SM FEW080 SCT250
     FM291500 03010KT P6SM SKC=



    US Dept of Commerce
    National Oceanic and Atmospheric Administration
    National Weather Service
    1325 East West Highway
    Silver Spring, MD 20910
    Page Author: NWS Internet Services Team
Disclaimer
Information Quality
Credits
Glossary
Privacy Policy
Freedom of Information Act (FOIA)
About Us
Career Opportunities